Flight Track Log - Related Links

Times and Time Zones

All times are in EDT time to prevent confusion due to time zone crossing. See the OPT332 flight status page for this flight to view local times or setup timezone preferences in your user account.

Time Position Orientation Groundspeed Altitude Reporting Facility
EDT Latitude Longitude Course Direction KTS MPH feet Rate Location/Type
Fri 10:37:20 AM 42.1444 -87.9175 344° North 166 191 2,300  Level Chicago Center
Fri 10:38:22 AM 42.1978 -87.9378 344° North 207 238 5,100 2,806 Climbing Chicago Center
Fri 10:39:24 AM 42.1833 -87.9900 250° West 226 260 8,100 2,903 Climbing Chicago Center
Fri 10:40:26 AM 42.1175 -87.9875 178° South 239 275 11,100 3,097 Climbing Chicago Center
Fri 10:41:28 AM 42.0303 -87.9886 181° South 258 297 14,500 2,976 Climbing Chicago Center
Fri 10:42:31 AM 41.9581 -87.9897 181° South 262 302 17,300 2,352 Climbing Chicago Center
Fri 10:43:33 AM 41.8853 -88.0164 195° South 278 320 19,400 1,984 Climbing Chicago Center
Fri 10:44:35 AM 41.8083 -88.0481 197° South 286 329 21,400 1,935 Climbing Chicago Center
Fri 10:45:37 AM 41.7328 -88.0792 197° South 288 331 23,400 2,129 Climbing Chicago Center
Fri 10:46:39 AM 41.6564 -88.1464 213° Southwest 275 316 25,800 1,839 Climbing Chicago Center
Fri 10:47:41 AM 41.5933 -88.2014 213° Southwest 275 316 27,200 1,161 Climbing Chicago Center
Fri 10:48:43 AM 41.5264 -88.2611 214° Southwest 292 336 28,200 968 Climbing Chicago Center
Fri 10:49:45 AM 41.4544 -88.3219 212° Southwest 307 353 29,200 1,065 Climbing Chicago Center
Fri 10:50:47 AM 41.3647 -88.3992 213° Southwest 322 371 30,400 1,065 Climbing Chicago Center
Fri 10:51:49 AM 41.2875 -88.4656 213° Southwest 332 382 31,400 968 Climbing Chicago Center
Fri 10:52:51 AM 41.2086 -88.5331 213° Southwest 339 390 32,400 960 Climbing Chicago Center
Fri 10:53:54 AM 41.1350 -88.6122 219° Southwest 344 396 33,400 768 Climbing Chicago Center
Fri 10:54:56 AM 41.0583 -88.7206 227° Southwest 339 390 34,000 290 Climbing Chicago Center
Fri 10:55:58 AM 40.9881 -88.8169 226° Southwest 360 414 34,000  Level Chicago Center
Fri 10:57:00 AM 40.9117 -88.9225 226° Southwest 370 426 34,000  Level Chicago Center
Fri 10:58:02 AM 40.8386 -89.0211 226° Southwest 373 429 34,000  Level Chicago Center
Fri 10:59:04 AM 40.7708 -89.1139 226° Southwest 356 410 34,000  Level Chicago Center
Fri 11:00:07 AM 40.7056 -89.2019 226° Southwest 339 390 34,000  Level Chicago Center
Fri 11:01:09 AM 40.6411 -89.2872 225° Southwest 329 379 34,000  Level Chicago Center
Fri 11:02:11 AM 40.5775 -89.3731 226° Southwest 326 375 34,000  Level Chicago Center
Fri 11:03:13 AM 40.5142 -89.4586 226° Southwest 325 374 34,000  Level Chicago Center
Fri 11:04:15 AM 40.4381 -89.5597 225° Southwest 322 371 34,000  Level Chicago Center
Fri 11:05:17 AM 40.3756 -89.6436 226° Southwest 321 369 34,000  Level Chicago Center
Fri 11:06:19 AM 40.3133 -89.7261 225° Southwest 318 366 34,000  Level Chicago Center
Fri 11:07:21 AM 40.2508 -89.8108 226° Southwest 321 369 34,000  Level Chicago Center
Fri 11:08:30 AM 40.1881 -89.8950 226° Southwest 320 368 34,000  Level Kansas City Center
Fri 11:09:34 AM 40.1125 -89.9933 225° Southwest 320 368 34,000  Level Kansas City Center
Fri 11:10:34 AM 40.0514 -90.0764 226° Southwest 318 366 34,000  Level Kansas City Center
Fri 11:11:38 AM 39.9892 -90.1583 225° Southwest 318 366 34,000  Level Kansas City Center
Fri 11:12:38 AM 39.9267 -90.2406 225° Southwest 318 366 34,000  Level Kansas City Center
Fri 11:13:39 AM 39.8647 -90.3239 226° Southwest 319 367 34,000  Level Kansas City Center
Fri 11:14:43 AM 39.8014 -90.4042 224° Southwest 318 366 34,000  Level Kansas City Center
Fri 11:15:44 AM 39.7369 -90.4894 226° Southwest 318 366 34,000  Level Kansas City Center
Fri 11:16:47 AM 39.6631 -90.5900 226° Southwest 321 369 34,000  Level Kansas City Center
Fri 11:17:48 AM 39.6008 -90.6719 225° Southwest 321 369 34,000  Level Kansas City Center
Fri 11:18:52 AM 39.5381 -90.7544 225° Southwest 322 371 34,000  Level Kansas City Center
Fri 11:19:52 AM 39.4756 -90.8369 226° Southwest 322 371 34,000  Level Kansas City Center
Fri 11:20:56 AM 39.4119 -90.9192 225° Southwest 324 373 34,000 -823 Level Kansas City Center
Fri 11:21:56 AM 39.3478 -91.0031 225° Southwest 327 376 32,300 -1,935 Descending Kansas City Center
Fri 11:23:00 AM 39.2631 -91.1142 225° Southwest 350 403 30,000 -2,064 Descending Kansas City Center
Fri 11:24:01 AM 39.1889 -91.2106 225° Southwest 369 425 28,000 -1,983 Descending Kansas City Center
Fri 11:25:01 AM 39.1133 -91.3097 226° Southwest 383 441 26,000 -1,887 Descending Kansas City Center
Fri 11:26:05 AM 39.0369 -91.4072 225° Southwest 388 447 24,100 -960 Descending Kansas City Center
Fri 11:27:06 AM 38.9619 -91.5033 225° Southwest 385 443 24,000 -432 Descending Kansas City Center
Fri 11:28:10 AM 38.8783 -91.6089 225° Southwest 371 427 23,200 -480 Descending Kansas City Center
Fri 11:29:11 AM 38.8094 -91.6981 225° Southwest 362 417 23,000 -634 Descending Kansas City Center
Fri 11:30:13 AM 38.7419 -91.7850 225° Southwest 352 405 21,900 -1,095 Descending Kansas City Center
Fri 11:31:17 AM 38.6728 -91.8711 224° Southwest 349 402 20,700 -2,032 Descending Kansas City Center
Fri 11:32:17 AM 38.6100 -91.9511 225° Southwest 334 384 17,700 -3,246 Descending Kansas City Center
Fri 11:33:19 AM 38.5358 -92.0483 226° Southwest 321 369 14,100 -3,143 Descending Kansas City Center
Fri 11:34:23 AM 38.4714 -92.1281 224° Southwest 321 369 11,100 -2,661 Descending Kansas City Center
Fri 11:35:23 AM 38.4108 -92.2042 225° Southwest 312 359 8,600 -2,361 Descending Kansas City Center
Fri 11:36:25 AM 38.3547 -92.2733 224° Southwest 290 334 6,300 -2,195 Descending Kansas City Center
Fri 11:37:26 AM 38.3019 -92.3392 224° Southwest 273 314 4,100 -1,632 Descending Kansas City Center
Fri 11:38:30 AM 38.2525 -92.3992 224° Southwest 259 298 2,900 -567 Descending Kansas City Center
Fri 11:39:33 AM 38.2081 -92.4400 216° Southwest 222 255 2,900 -97 Level Kansas City Center
Fri 11:40:34 AM 38.1744 -92.4736 218° Southwest 182 209 2,700 -197 Descending Kansas City Center
Fri 11:42:00 AM 38.0833 -92.5333 218° Southwest  Level FlightAware Approximate
Fri 11:49:00 AM 38.0960 -92.5495 218° Southwest  Level Estimated
Fri 11:50:00 AM 38.0960 -92.5495 218° Southwest  Level Estimated
Fri 11:51:00 AM 38.0960 -92.5495 218° Southwest  Level Estimated
Fri 11:52:00 AM 38.0960 -92.5495 218° Southwest  Level Estimated

Login

Don't have an account? Register now (free) for customized features, flight alerts, and more!